createdAt,value
2017-01-27T00:00:11.706Z,17.00
2017-01-27T00:01:12.323Z,16.90
2017-01-27T00:02:13.173Z,16.90
2017-01-27T00:03:11.220Z,16.90
2017-01-27T00:04:11.408Z,16.90
2017-01-27T00:05:12.225Z,16.90
2017-01-27T00:06:11.951Z,16.90
2017-01-27T00:07:12.242Z,16.90
2017-01-27T00:08:11.884Z,16.90
2017-01-27T00:09:12.032Z,16.90
2017-01-27T00:10:08.658Z,16.90
2017-01-27T00:11:12.837Z,16.90
2017-01-27T00:12:11.891Z,16.90
2017-01-27T00:13:12.621Z,16.90
2017-01-27T00:14:10.345Z,16.90
2017-01-27T00:15:12.491Z,16.90
2017-01-27T00:16:13.151Z,16.90
2017-01-27T00:17:11.351Z,16.90
2017-01-27T00:18:12.132Z,16.90
2017-01-27T00:19:11.343Z,16.90
2017-01-27T00:20:11.912Z,16.90
2017-01-27T00:21:12.630Z,16.90
2017-01-27T00:22:12.312Z,16.90
2017-01-27T00:23:11.941Z,16.90
2017-01-27T00:24:12.120Z,16.90
2017-01-27T00:25:11.762Z,16.90
2017-01-27T00:26:11.883Z,16.90
2017-01-27T00:27:12.654Z,16.90
2017-01-27T00:28:11.894Z,16.90
2017-01-27T00:29:12.030Z,16.90
2017-01-27T00:30:11.695Z,16.90
2017-01-27T00:31:14.732Z,16.90
2017-01-27T00:32:11.951Z,16.90
2017-01-27T00:33:12.534Z,16.90
2017-01-27T00:34:11.558Z,16.90
2017-01-27T00:35:12.204Z,16.90
2017-01-27T00:36:09.923Z,16.90
2017-01-27T00:37:12.177Z,16.90
2017-01-27T00:38:11.347Z,16.90
2017-01-27T00:39:11.885Z,16.80
2017-01-27T00:40:12.841Z,16.90
2017-01-27T00:41:12.586Z,16.90
2017-01-27T00:42:13.214Z,16.80
2017-01-27T00:43:11.416Z,16.80
2017-01-27T00:44:11.662Z,16.80
2017-01-27T00:45:13.239Z,16.80
2017-01-27T00:46:12.168Z,16.90
2017-01-27T00:47:12.217Z,16.80
2017-01-27T00:48:11.782Z,16.80
2017-01-27T00:49:13.964Z,16.80
2017-01-27T00:50:12.063Z,16.80
2017-01-27T00:51:12.005Z,16.80
2017-01-27T00:52:11.234Z,16.80
2017-01-27T00:53:12.861Z,16.80
2017-01-27T00:54:12.566Z,16.80
2017-01-27T00:55:14.705Z,16.80
2017-01-27T00:56:11.733Z,16.80
2017-01-27T00:57:13.063Z,16.80
2017-01-27T00:58:11.923Z,16.80
2017-01-27T00:59:12.795Z,16.80
2017-01-27T01:00:12.719Z,16.80
2017-01-27T01:01:13.557Z,16.80
2017-01-27T01:02:10.774Z,16.80
2017-01-27T01:03:15.010Z,16.80
2017-01-27T01:04:12.526Z,16.80
2017-01-27T01:05:12.633Z,16.80
2017-01-27T01:06:13.209Z,16.80
2017-01-27T01:07:13.735Z,16.80
2017-01-27T01:08:12.453Z,16.80
2017-01-27T01:09:13.706Z,16.80
2017-01-27T01:10:12.742Z,16.80
2017-01-27T01:11:13.789Z,16.80
2017-01-27T01:12:09.950Z,16.80
2017-01-27T01:13:11.590Z,16.80
2017-01-27T01:14:13.740Z,16.80
2017-01-27T01:15:13.307Z,16.80
2017-01-27T01:16:14.514Z,16.80
2017-01-27T01:17:14.040Z,16.80
2017-01-27T01:18:11.669Z,16.80
2017-01-27T01:19:12.315Z,16.80
2017-01-27T01:20:12.255Z,16.80
2017-01-27T01:21:11.907Z,16.80
2017-01-27T01:22:09.895Z,16.80
2017-01-27T01:23:11.203Z,16.80
2017-01-27T01:24:11.960Z,16.80
2017-01-27T01:25:11.935Z,16.80
2017-01-27T01:26:12.077Z,16.80
2017-01-27T01:27:12.467Z,16.80
2017-01-27T01:28:12.808Z,16.80
2017-01-27T01:29:12.891Z,16.80
2017-01-27T01:30:11.564Z,16.80
2017-01-27T01:31:12.316Z,16.80
2017-01-27T01:32:12.066Z,16.80
2017-01-27T01:33:11.154Z,16.80
2017-01-27T01:34:09.854Z,16.80
2017-01-27T01:35:11.738Z,16.80
2017-01-27T01:36:11.881Z,16.80
2017-01-27T01:37:12.829Z,16.80
2017-01-27T01:38:12.764Z,16.80
2017-01-27T01:39:12.710Z,16.80
2017-01-27T01:40:11.675Z,16.80
2017-01-27T01:41:12.432Z,16.80
2017-01-27T01:42:12.820Z,16.80
2017-01-27T01:43:12.625Z,16.80
2017-01-27T01:44:12.969Z,16.80
2017-01-27T01:45:12.685Z,16.80
2017-01-27T01:46:12.480Z,16.80
2017-01-27T01:47:12.205Z,16.80
2017-01-27T01:48:11.835Z,16.80
2017-01-27T01:49:11.964Z,16.80
2017-01-27T01:50:12.354Z,16.80
2017-01-27T01:51:12.717Z,16.80
2017-01-27T01:52:13.182Z,16.80
2017-01-27T01:53:11.970Z,16.80
2017-01-27T01:54:12.644Z,16.80
2017-01-27T01:55:12.274Z,16.80
2017-01-27T01:56:13.438Z,16.80
2017-01-27T01:57:12.220Z,16.80
2017-01-27T01:58:12.040Z,16.80
2017-01-27T01:59:13.865Z,16.80
2017-01-27T02:00:12.637Z,16.80
2017-01-27T02:01:12.515Z,16.80
2017-01-27T02:02:12.336Z,16.80
2017-01-27T02:03:11.480Z,16.80
2017-01-27T02:04:13.464Z,16.80
2017-01-27T02:05:13.155Z,16.80
2017-01-27T02:06:11.777Z,16.80
2017-01-27T02:07:12.316Z,16.80
2017-01-27T02:08:12.786Z,16.80
2017-01-27T02:09:12.516Z,16.80
2017-01-27T02:10:11.514Z,16.70
2017-01-27T02:11:12.126Z,16.80
2017-01-27T02:12:11.859Z,16.70
2017-01-27T02:13:12.471Z,16.80
2017-01-27T02:14:13.227Z,16.80
2017-01-27T02:15:12.839Z,16.80
2017-01-27T02:16:13.220Z,16.80
2017-01-27T02:17:11.927Z,16.80
2017-01-27T02:18:12.593Z,16.70
2017-01-27T02:19:12.601Z,16.80
2017-01-27T02:20:12.492Z,16.80
2017-01-27T02:21:12.126Z,16.80
2017-01-27T02:22:11.423Z,16.80
2017-01-27T02:23:11.951Z,16.80
2017-01-27T02:24:12.716Z,16.80
2017-01-27T02:25:10.618Z,16.80
2017-01-27T02:26:12.085Z,16.80
2017-01-27T02:27:11.962Z,16.80
2017-01-27T02:28:13.610Z,16.80
2017-01-27T02:29:13.134Z,16.80
2017-01-27T02:30:11.260Z,16.80
2017-01-27T02:31:11.487Z,16.80
2017-01-27T02:32:13.307Z,16.80
2017-01-27T02:33:12.550Z,16.80
2017-01-27T02:34:12.263Z,16.80
2017-01-27T02:35:12.974Z,16.80
2017-01-27T02:36:13.819Z,16.70
2017-01-27T02:37:13.650Z,16.80
2017-01-27T02:38:11.716Z,16.70
2017-01-27T02:39:13.532Z,16.70
2017-01-27T02:40:12.486Z,16.80
2017-01-27T02:41:12.287Z,16.70
2017-01-27T02:42:13.128Z,16.70
2017-01-27T02:43:11.755Z,16.70
2017-01-27T02:44:13.423Z,16.70
2017-01-27T02:45:12.350Z,16.70
2017-01-27T02:46:12.549Z,16.70
2017-01-27T02:47:11.769Z,16.70
2017-01-27T02:48:11.820Z,16.70
2017-01-27T02:49:12.731Z,16.70
2017-01-27T02:50:11.285Z,16.70
2017-01-27T02:51:12.155Z,16.70
2017-01-27T02:52:11.128Z,16.70
2017-01-27T02:53:11.284Z,16.70
2017-01-27T02:54:11.375Z,16.60
2017-01-27T02:55:11.447Z,16.60
2017-01-27T02:56:11.608Z,16.60
2017-01-27T02:57:13.446Z,16.60
2017-01-27T02:58:12.357Z,16.70
2017-01-27T02:59:11.883Z,16.60
2017-01-27T03:00:13.856Z,16.60
2017-01-27T03:01:12.461Z,16.60
2017-01-27T03:02:12.227Z,16.60
2017-01-27T03:03:12.210Z,16.60
2017-01-27T03:04:11.232Z,16.60
2017-01-27T03:05:11.273Z,16.60
2017-01-27T03:06:11.925Z,16.60
2017-01-27T03:07:13.927Z,16.60
2017-01-27T03:08:12.118Z,16.60
2017-01-27T03:09:11.315Z,16.60
2017-01-27T03:10:11.419Z,16.60
2017-01-27T03:11:12.713Z,16.60
2017-01-27T03:12:14.198Z,16.60
2017-01-27T03:13:09.908Z,16.60
2017-01-27T03:14:09.266Z,16.60
2017-01-27T03:15:11.766Z,16.60
2017-01-27T03:16:11.880Z,16.60
2017-01-27T03:17:12.044Z,16.60
2017-01-27T03:18:11.331Z,16.60
2017-01-27T03:19:11.438Z,16.60
2017-01-27T03:20:13.961Z,16.60
2017-01-27T03:21:13.053Z,16.60
2017-01-27T03:22:11.974Z,16.60
2017-01-27T03:23:12.634Z,16.60
2017-01-27T03:24:11.824Z,16.60
2017-01-27T03:25:10.297Z,16.60
2017-01-27T03:26:11.903Z,16.60
2017-01-27T03:27:11.534Z,16.60
2017-01-27T03:28:13.274Z,16.60
2017-01-27T03:29:12.035Z,16.60
2017-01-27T03:30:12.191Z,16.60
2017-01-27T03:31:11.822Z,16.60
2017-01-27T03:32:12.326Z,16.60
2017-01-27T03:33:13.125Z,16.60
2017-01-27T03:34:12.169Z,16.60
2017-01-27T03:35:11.896Z,16.60
2017-01-27T03:36:12.237Z,16.60
2017-01-27T03:37:12.116Z,16.60
2017-01-27T03:38:11.972Z,16.60
2017-01-27T03:39:12.042Z,16.60
2017-01-27T03:40:11.418Z,16.60
2017-01-27T03:41:11.604Z,16.60
2017-01-27T03:42:12.172Z,16.60
2017-01-27T03:43:12.567Z,16.60
2017-01-27T03:44:13.207Z,16.60
2017-01-27T03:45:11.396Z,16.60
2017-01-27T03:46:12.356Z,16.60
2017-01-27T03:47:11.449Z,16.60
2017-01-27T03:48:11.579Z,16.60
2017-01-27T03:49:11.565Z,16.60
2017-01-27T03:50:12.156Z,16.60
2017-01-27T03:51:11.800Z,16.60
2017-01-27T03:52:11.969Z,16.60
2017-01-27T03:53:13.020Z,16.60
2017-01-27T03:54:11.413Z,16.60
2017-01-27T03:55:12.227Z,16.60
2017-01-27T03:56:11.318Z,16.60
2017-01-27T03:57:11.418Z,16.60
2017-01-27T03:58:12.070Z,16.60
2017-01-27T03:59:13.556Z,16.60
2017-01-27T04:00:12.537Z,16.60
2017-01-27T04:01:11.684Z,16.60
2017-01-27T04:02:13.574Z,16.60
2017-01-27T04:03:09.807Z,16.60
2017-01-27T04:04:13.039Z,16.60
2017-01-27T04:05:11.737Z,16.60
2017-01-27T04:06:11.864Z,16.60
2017-01-27T04:07:12.718Z,16.60
2017-01-27T04:08:11.827Z,16.60
2017-01-27T04:09:14.592Z,16.60
2017-01-27T04:10:12.280Z,16.60
2017-01-27T04:11:11.316Z,16.60
2017-01-27T04:12:12.183Z,16.60
2017-01-27T04:13:11.883Z,16.60
2017-01-27T04:14:12.495Z,16.60
2017-01-27T04:15:12.353Z,16.60
2017-01-27T04:16:13.116Z,16.60
2017-01-27T04:17:11.923Z,16.60
2017-01-27T04:18:12.775Z,16.60
2017-01-27T04:19:11.839Z,16.60
2017-01-27T04:20:12.594Z,16.60
2017-01-27T04:21:11.898Z,16.60
2017-01-27T04:22:11.807Z,16.60
2017-01-27T04:23:12.584Z,16.60
2017-01-27T04:24:11.806Z,16.60
2017-01-27T04:25:12.796Z,16.60
2017-01-27T04:26:12.068Z,16.60
2017-01-27T04:27:11.729Z,16.60
2017-01-27T04:28:11.863Z,16.60
2017-01-27T04:29:12.619Z,16.60
2017-01-27T04:30:13.438Z,16.60
2017-01-27T04:31:11.940Z,16.60
2017-01-27T04:32:12.303Z,16.60
2017-01-27T04:33:11.998Z,16.60
2017-01-27T04:34:11.898Z,16.60
2017-01-27T04:35:12.824Z,16.60
2017-01-27T04:36:14.725Z,16.60
2017-01-27T04:37:10.626Z,16.60
2017-01-27T04:38:11.231Z,16.60
2017-01-27T04:39:11.228Z,16.60
2017-01-27T04:40:11.349Z,16.60
2017-01-27T04:41:11.404Z,16.60
2017-01-27T04:42:12.010Z,16.60
2017-01-27T04:43:12.490Z,16.60
2017-01-27T04:44:12.216Z,16.60
2017-01-27T04:45:12.345Z,16.60
2017-01-27T04:46:12.149Z,16.60
2017-01-27T04:47:11.695Z,16.60
2017-01-27T04:48:12.362Z,16.60
2017-01-27T04:49:11.455Z,16.60
2017-01-27T04:50:12.147Z,16.60
2017-01-27T04:51:11.167Z,16.60
2017-01-27T04:52:11.824Z,16.60
2017-01-27T04:53:12.448Z,16.60
2017-01-27T04:54:10.039Z,16.60
2017-01-27T04:55:13.260Z,16.60
2017-01-27T04:56:12.264Z,16.60
2017-01-27T04:57:11.971Z,16.60
2017-01-27T04:58:12.566Z,16.60
2017-01-27T04:59:12.142Z,16.60
2017-01-27T05:00:13.718Z,16.60
2017-01-27T05:01:11.892Z,16.60
2017-01-27T05:02:11.793Z,16.60
2017-01-27T05:03:13.846Z,16.60
2017-01-27T05:04:11.873Z,16.60
2017-01-27T05:05:11.924Z,16.60
2017-01-27T05:06:11.877Z,16.60
2017-01-27T05:07:13.234Z,16.60
2017-01-27T05:08:11.776Z,16.60
2017-01-27T05:09:12.258Z,16.60
2017-01-27T05:10:11.918Z,16.60
2017-01-27T05:11:12.536Z,16.60
2017-01-27T05:12:11.575Z,16.60
2017-01-27T05:13:13.362Z,16.60
2017-01-27T05:14:12.386Z,16.60
2017-01-27T05:15:12.778Z,16.60
2017-01-27T05:16:12.377Z,16.60
2017-01-27T05:17:11.718Z,16.60
2017-01-27T05:18:12.581Z,16.60
2017-01-27T05:19:13.696Z,16.60
2017-01-27T05:20:11.913Z,16.60
2017-01-27T05:21:12.940Z,16.60
2017-01-27T05:22:12.527Z,16.60
2017-01-27T05:23:13.315Z,16.60
2017-01-27T05:24:10.691Z,16.60
2017-01-27T05:25:15.333Z,16.60
2017-01-27T05:26:10.591Z,16.60
2017-01-27T05:27:11.490Z,16.60
2017-01-27T05:28:11.938Z,16.60
2017-01-27T05:29:12.647Z,16.60
2017-01-27T05:30:12.628Z,16.60
2017-01-27T05:31:12.493Z,16.60
2017-01-27T05:32:11.705Z,16.60
2017-01-27T05:33:12.928Z,16.60
2017-01-27T05:34:13.133Z,16.60
2017-01-27T05:35:11.149Z,16.60
2017-01-27T05:36:09.812Z,16.60
2017-01-27T05:37:11.854Z,16.60
2017-01-27T05:38:13.036Z,16.60
2017-01-27T05:39:11.572Z,16.60
2017-01-27T05:40:12.667Z,16.60
2017-01-27T05:41:12.423Z,16.60
2017-01-27T05:42:11.995Z,16.60
2017-01-27T05:43:09.751Z,16.60
2017-01-27T05:44:11.296Z,16.60
2017-01-27T05:45:11.889Z,16.60
2017-01-27T05:46:11.898Z,16.60
2017-01-27T05:47:12.912Z,16.60
2017-01-27T05:48:11.167Z,16.60
2017-01-27T05:49:12.030Z,16.60
2017-01-27T05:50:11.145Z,16.60
2017-01-27T05:51:11.908Z,16.60
2017-01-27T05:52:15.531Z,16.70
2017-01-27T05:53:13.312Z,16.60
2017-01-27T05:54:12.067Z,16.60
2017-01-27T05:55:11.815Z,16.60
2017-01-27T05:56:12.045Z,16.60
2017-01-27T05:57:11.194Z,16.60
2017-01-27T05:58:11.853Z,16.60
2017-01-27T05:59:10.433Z,16.60
2017-01-27T06:00:12.812Z,16.60
2017-01-27T06:01:13.284Z,16.60
2017-01-27T06:02:11.999Z,16.60
2017-01-27T06:03:14.828Z,16.60
2017-01-27T06:04:12.417Z,16.60
2017-01-27T06:05:13.510Z,16.60
2017-01-27T06:06:11.633Z,16.60
2017-01-27T06:07:12.875Z,16.60
2017-01-27T06:08:12.484Z,16.60
2017-01-27T06:09:12.219Z,16.60
2017-01-27T06:10:11.302Z,16.60
2017-01-27T06:11:11.528Z,16.60
2017-01-27T06:12:11.669Z,16.60
2017-01-27T06:13:12.226Z,16.60
2017-01-27T06:14:11.975Z,16.60
2017-01-27T06:15:11.736Z,16.60
2017-01-27T06:16:12.441Z,16.60
2017-01-27T06:17:11.721Z,16.60
2017-01-27T06:18:11.676Z,16.60
2017-01-27T06:19:12.367Z,16.60
2017-01-27T06:20:11.408Z,16.60
2017-01-27T06:21:09.471Z,16.60
2017-01-27T06:22:12.615Z,16.60
2017-01-27T06:23:11.746Z,16.60
2017-01-27T06:24:11.826Z,16.70
2017-01-27T06:25:11.990Z,16.60
2017-01-27T06:26:11.986Z,16.70
2017-01-27T06:27:10.746Z,16.70
2017-01-27T06:28:12.176Z,16.70
2017-01-27T06:29:11.547Z,16.70
2017-01-27T06:30:11.799Z,16.70
2017-01-27T06:31:12.467Z,16.70
2017-01-27T06:32:11.545Z,16.70
2017-01-27T06:33:12.515Z,16.70
2017-01-27T06:34:11.763Z,16.70
2017-01-27T06:35:12.633Z,16.70
2017-01-27T06:36:12.676Z,16.70
2017-01-27T06:37:11.917Z,16.70
2017-01-27T06:38:12.036Z,16.70
2017-01-27T06:39:11.259Z,16.70
2017-01-27T06:40:11.186Z,16.70
2017-01-27T06:41:11.224Z,16.80
2017-01-27T06:42:11.747Z,16.80
2017-01-27T06:43:11.669Z,16.80
2017-01-27T06:44:09.556Z,16.80
2017-01-27T06:45:13.425Z,16.80
2017-01-27T06:46:09.655Z,16.80
2017-01-27T06:47:11.934Z,16.80
2017-01-27T06:48:12.621Z,16.80
2017-01-27T06:49:11.802Z,16.80
2017-01-27T06:50:10.347Z,16.80
2017-01-27T06:51:13.553Z,16.80
2017-01-27T06:52:13.263Z,16.80
2017-01-27T06:53:11.592Z,16.80
2017-01-27T06:54:12.117Z,16.80
2017-01-27T06:55:11.898Z,16.80
2017-01-27T06:56:12.640Z,16.80
2017-01-27T06:57:13.672Z,16.80
2017-01-27T06:58:10.479Z,16.80
2017-01-27T06:59:13.463Z,16.80
2017-01-27T07:00:12.019Z,16.80
2017-01-27T07:01:12.071Z,16.80
2017-01-27T07:02:12.642Z,16.80
2017-01-27T07:03:13.509Z,16.80
2017-01-27T07:04:13.336Z,16.70
2017-01-27T07:05:11.464Z,16.60
2017-01-27T07:06:12.426Z,16.50
2017-01-27T07:07:12.028Z,16.40
2017-01-27T07:08:13.529Z,16.40
2017-01-27T07:09:08.425Z,16.50
2017-01-27T07:10:13.309Z,16.50
2017-01-27T07:11:12.454Z,16.50
2017-01-27T07:12:12.222Z,16.50
2017-01-27T07:13:11.397Z,16.60
2017-01-27T07:14:11.818Z,16.60
2017-01-27T07:15:12.569Z,16.60
2017-01-27T07:16:12.592Z,16.60
2017-01-27T07:17:11.736Z,16.60
2017-01-27T07:18:12.625Z,16.60
2017-01-27T07:19:11.722Z,16.60
2017-01-27T07:20:12.602Z,16.70
2017-01-27T07:21:11.711Z,16.70
2017-01-27T07:22:10.491Z,16.70
2017-01-27T07:23:12.043Z,16.60
2017-01-27T07:24:10.910Z,16.60
2017-01-27T07:25:11.042Z,16.60
2017-01-27T07:26:10.912Z,16.60
2017-01-27T07:27:11.913Z,16.60
2017-01-27T07:28:11.937Z,16.60
2017-01-27T07:29:14.845Z,16.60
2017-01-27T07:30:12.009Z,16.60
2017-01-27T07:31:11.131Z,16.70
2017-01-27T07:32:11.749Z,16.70
2017-01-27T07:33:11.875Z,16.70
2017-01-27T07:34:10.376Z,16.70
2017-01-27T07:35:11.972Z,16.70
2017-01-27T07:36:13.349Z,16.70
2017-01-27T07:37:12.183Z,16.70
2017-01-27T07:38:11.799Z,16.70
2017-01-27T07:39:11.886Z,16.70
2017-01-27T07:40:12.038Z,16.60
2017-01-27T07:41:11.032Z,16.50
2017-01-27T07:42:11.724Z,16.30
2017-01-27T07:43:12.265Z,16.10
2017-01-27T07:44:13.011Z,15.90
2017-01-27T07:45:11.071Z,15.70
2017-01-27T07:46:11.609Z,15.80
2017-01-27T07:47:11.748Z,15.80
2017-01-27T07:48:14.811Z,15.90
2017-01-27T07:49:11.851Z,15.90
2017-01-27T07:50:13.639Z,16.00
2017-01-27T07:51:12.193Z,16.10
2017-01-27T07:52:11.376Z,16.10
2017-01-27T07:53:11.496Z,16.20
2017-01-27T07:54:12.120Z,16.20
2017-01-27T07:55:11.832Z,16.30
2017-01-27T07:56:11.883Z,16.30
2017-01-27T07:57:12.696Z,16.30
2017-01-27T07:58:13.017Z,16.40
2017-01-27T07:59:12.663Z,16.40
2017-01-27T08:00:08.985Z,16.50
2017-01-27T08:01:11.282Z,16.40
2017-01-27T08:02:12.014Z,16.50
2017-01-27T08:03:12.344Z,16.50
2017-01-27T08:04:11.395Z,16.50
2017-01-27T08:05:11.549Z,16.50
2017-01-27T08:06:12.213Z,16.50
2017-01-27T08:07:12.602Z,16.50
2017-01-27T08:08:12.322Z,16.50
2017-01-27T08:09:12.642Z,16.50
2017-01-27T08:10:10.347Z,16.50
2017-01-27T08:11:13.802Z,16.50
2017-01-27T08:12:12.653Z,16.50
2017-01-27T08:13:12.528Z,16.50
2017-01-27T08:14:11.620Z,16.60
2017-01-27T08:15:12.404Z,16.60
2017-01-27T08:16:11.465Z,16.60
2017-01-27T08:17:12.263Z,16.60
2017-01-27T08:18:11.494Z,16.60
2017-01-27T08:19:12.233Z,16.60
2017-01-27T08:20:09.985Z,16.60
2017-01-27T08:21:12.231Z,16.60
2017-01-27T08:22:11.248Z,16.60
2017-01-27T08:23:10.107Z,16.60
2017-01-27T08:24:12.024Z,16.60
2017-01-27T08:25:11.150Z,16.60
2017-01-27T08:26:09.737Z,16.60
2017-01-27T08:27:11.284Z,16.60
2017-01-27T08:28:12.025Z,16.60
2017-01-27T08:29:11.024Z,16.60
2017-01-27T08:30:11.072Z,16.60
2017-01-27T08:31:11.600Z,16.60
2017-01-27T08:32:11.583Z,16.60
2017-01-27T08:33:12.055Z,16.70
2017-01-27T08:34:11.783Z,16.70
2017-01-27T08:35:12.426Z,16.70
2017-01-27T08:36:11.471Z,16.70
2017-01-27T08:37:11.591Z,16.70
2017-01-27T08:38:11.713Z,16.70
2017-01-27T08:39:12.403Z,16.70
2017-01-27T08:40:12.183Z,16.70
2017-01-27T08:41:11.911Z,16.70
2017-01-27T08:42:11.085Z,16.70
2017-01-27T08:43:12.414Z,16.70
2017-01-27T08:44:13.205Z,16.70
2017-01-27T08:45:10.710Z,16.70
2017-01-27T08:46:11.932Z,16.70
2017-01-27T08:47:12.250Z,16.70
2017-01-27T08:48:11.371Z,16.70
2017-01-27T08:49:14.003Z,16.70
2017-01-27T08:50:13.198Z,16.70
2017-01-27T08:51:09.661Z,16.70
2017-01-27T08:52:14.116Z,16.70
2017-01-27T08:53:11.129Z,16.60
2017-01-27T08:54:11.041Z,16.60
2017-01-27T08:55:12.570Z,16.70
2017-01-27T08:56:12.234Z,16.70
2017-01-27T08:57:09.202Z,16.70
2017-01-27T08:58:12.713Z,16.60
2017-01-27T08:59:13.231Z,16.70
2017-01-27T09:00:11.446Z,16.60
2017-01-27T09:01:12.135Z,16.60
2017-01-27T09:02:12.367Z,16.60
2017-01-27T09:03:11.408Z,16.60
2017-01-27T09:04:12.180Z,16.60
2017-01-27T09:05:12.016Z,16.60
2017-01-27T09:06:11.172Z,16.60
2017-01-27T09:07:12.145Z,16.60
2017-01-27T09:08:11.206Z,16.60
2017-01-27T09:09:11.292Z,16.60
2017-01-27T09:10:09.778Z,16.60
2017-01-27T09:11:11.464Z,16.60
2017-01-27T09:12:12.173Z,16.60
2017-01-27T09:13:11.730Z,16.60
2017-01-27T09:14:12.744Z,16.60
2017-01-27T09:15:12.387Z,16.60
2017-01-27T09:16:11.872Z,16.60
2017-01-27T09:17:11.956Z,16.60
2017-01-27T09:18:12.057Z,16.60
2017-01-27T09:19:11.898Z,16.60
2017-01-27T09:20:12.607Z,16.60
2017-01-27T09:21:11.705Z,16.60
2017-01-27T09:22:14.364Z,16.60
2017-01-27T09:23:11.570Z,16.60
2017-01-27T09:24:12.239Z,16.60
2017-01-27T09:25:11.221Z,16.60
2017-01-27T09:26:11.203Z,16.60
2017-01-27T09:27:11.306Z,16.60
2017-01-27T09:28:11.404Z,16.60
2017-01-27T09:29:12.700Z,16.60
2017-01-27T09:30:13.463Z,16.60
2017-01-27T09:31:12.064Z,16.60
2017-01-27T09:32:11.626Z,16.60
2017-01-27T09:33:10.506Z,16.60
2017-01-27T09:34:12.458Z,16.60
2017-01-27T09:35:08.897Z,16.60
2017-01-27T09:36:11.187Z,16.60
2017-01-27T09:37:11.341Z,16.60
2017-01-27T09:38:14.858Z,16.60
2017-01-27T09:39:12.764Z,16.60
2017-01-27T09:40:13.446Z,16.60
2017-01-27T09:41:11.596Z,16.60
2017-01-27T09:42:09.085Z,16.60
2017-01-27T09:43:11.568Z,16.60
2017-01-27T09:44:12.832Z,16.60
2017-01-27T09:45:12.717Z,16.60
2017-01-27T09:46:12.388Z,16.60
2017-01-27T09:47:12.231Z,16.70
2017-01-27T09:48:12.016Z,16.70
2017-01-27T09:49:11.998Z,16.70
2017-01-27T09:50:12.786Z,16.70
2017-01-27T09:51:12.553Z,16.70
2017-01-27T09:52:11.596Z,16.70
2017-01-27T09:53:12.314Z,16.70
2017-01-27T09:54:11.428Z,16.70
2017-01-27T09:55:12.088Z,16.70
2017-01-27T09:56:11.408Z,16.70
2017-01-27T09:57:12.137Z,16.70
2017-01-27T09:58:12.219Z,16.70
2017-01-27T09:59:11.991Z,16.70
2017-01-27T10:00:13.816Z,16.70
2017-01-27T10:01:13.345Z,16.70
2017-01-27T10:02:11.660Z,16.70
2017-01-27T10:03:12.475Z,16.70
2017-01-27T10:04:14.053Z,16.70
2017-01-27T10:05:11.823Z,15.90
2017-01-27T10:06:12.008Z,14.50
2017-01-27T10:07:12.887Z,13.30
2017-01-27T10:08:12.578Z,12.30
2017-01-27T10:09:12.097Z,11.40
2017-01-27T10:10:11.854Z,10.70
2017-01-27T10:11:12.652Z,10.30
2017-01-27T10:12:12.242Z,9.80
2017-01-27T10:13:11.937Z,9.60
2017-01-27T10:14:11.195Z,9.40
2017-01-27T10:15:11.839Z,9.30
2017-01-27T10:16:12.416Z,9.40
2017-01-27T10:17:12.727Z,10.00
2017-01-27T10:18:12.379Z,10.70
2017-01-27T10:19:11.945Z,11.40
2017-01-27T10:20:11.811Z,12.10
2017-01-27T10:21:12.353Z,12.80
2017-01-27T10:22:11.505Z,13.30
2017-01-27T10:23:12.260Z,13.70
2017-01-27T10:24:12.824Z,14.10
2017-01-27T10:25:13.437Z,14.40
2017-01-27T10:26:11.541Z,14.60
2017-01-27T10:27:11.745Z,14.80
2017-01-27T10:28:11.936Z,15.00
2017-01-27T10:29:12.174Z,15.20
2017-01-27T10:30:11.600Z,15.30
2017-01-27T10:31:15.215Z,15.50
2017-01-27T10:32:12.100Z,15.60
2017-01-27T10:33:13.128Z,15.60
2017-01-27T10:34:11.376Z,15.70
2017-01-27T10:35:12.190Z,15.80
2017-01-27T10:36:12.290Z,15.80
2017-01-27T10:37:10.381Z,15.90
2017-01-27T10:38:13.506Z,16.00
2017-01-27T10:39:11.641Z,16.00
2017-01-27T10:40:11.644Z,16.10
2017-01-27T10:41:11.770Z,16.20
2017-01-27T10:42:12.391Z,16.20
2017-01-27T10:43:12.104Z,16.30
2017-01-27T10:44:12.633Z,16.30
2017-01-27T10:45:12.576Z,16.40
2017-01-27T10:46:11.765Z,16.40
2017-01-27T10:47:11.868Z,16.40
2017-01-27T10:48:11.967Z,16.50
2017-01-27T10:49:12.150Z,16.50
2017-01-27T10:50:11.556Z,16.50
2017-01-27T10:51:12.297Z,16.40
2017-01-27T10:52:11.320Z,16.40
2017-01-27T10:53:09.981Z,16.30
2017-01-27T10:54:12.020Z,16.30
2017-01-27T10:55:11.820Z,16.20
2017-01-27T10:56:12.841Z,16.20
2017-01-27T10:57:12.064Z,16.20
2017-01-27T10:58:11.179Z,16.10
2017-01-27T10:59:12.396Z,16.10
2017-01-27T11:00:11.577Z,16.00
2017-01-27T11:01:11.585Z,16.00
2017-01-27T11:02:11.424Z,16.00
2017-01-27T11:03:11.504Z,15.90
2017-01-27T11:04:11.451Z,15.90
2017-01-27T11:05:11.452Z,15.90
2017-01-27T11:06:12.181Z,15.80
2017-01-27T11:07:09.312Z,15.80
2017-01-27T11:08:12.079Z,15.80
2017-01-27T11:09:11.696Z,15.80
2017-01-27T11:10:10.332Z,15.80
2017-01-27T11:11:11.862Z,15.80
2017-01-27T11:12:11.886Z,15.80
2017-01-27T11:13:11.920Z,15.80
2017-01-27T11:14:13.619Z,15.80
2017-01-27T11:15:13.386Z,15.80
2017-01-27T11:16:10.054Z,15.70
2017-01-27T11:17:12.531Z,15.70
2017-01-27T11:18:11.711Z,15.70
2017-01-27T11:19:12.440Z,15.70
2017-01-27T11:20:11.974Z,15.70
2017-01-27T11:21:12.552Z,15.70
2017-01-27T11:22:12.550Z,15.70
2017-01-27T11:23:11.578Z,15.70
2017-01-27T11:24:13.817Z,15.70
2017-01-27T11:25:11.732Z,15.70
2017-01-27T11:26:14.842Z,15.70
2017-01-27T11:27:12.000Z,15.70
2017-01-27T11:28:13.775Z,15.70
2017-01-27T11:29:12.919Z,15.70
2017-01-27T11:30:12.640Z,15.70
2017-01-27T11:31:12.280Z,15.70
2017-01-27T11:32:10.072Z,15.70
2017-01-27T11:33:12.553Z,15.70
2017-01-27T11:34:09.033Z,15.70
2017-01-27T11:35:11.952Z,15.70
2017-01-27T11:36:12.723Z,15.70
2017-01-27T11:37:11.761Z,15.70
2017-01-27T11:38:12.561Z,15.70
2017-01-27T11:39:13.213Z,15.70
2017-01-27T11:40:11.773Z,15.70
2017-01-27T11:41:13.321Z,15.70
2017-01-27T11:42:12.979Z,15.70
2017-01-27T11:43:12.098Z,15.70
2017-01-27T11:44:11.898Z,15.70
2017-01-27T11:45:11.950Z,15.70
2017-01-27T11:46:11.028Z,15.70
2017-01-27T11:47:11.011Z,15.70
2017-01-27T11:48:11.780Z,15.70
2017-01-27T11:49:11.807Z,15.70
2017-01-27T11:50:12.070Z,15.70
2017-01-27T11:51:11.176Z,15.70
2017-01-27T11:52:13.029Z,15.70
2017-01-27T11:53:11.673Z,15.70
2017-01-27T11:54:12.439Z,15.70
2017-01-27T11:55:12.108Z,15.70
2017-01-27T11:56:11.129Z,15.70
2017-01-27T11:57:11.459Z,15.70
2017-01-27T11:58:08.892Z,15.70
2017-01-27T11:59:13.459Z,15.70
2017-01-27T12:00:11.709Z,15.70
2017-01-27T12:01:12.467Z,15.70
2017-01-27T12:02:12.432Z,15.70
2017-01-27T12:03:12.975Z,15.70
2017-01-27T12:04:13.711Z,15.70
2017-01-27T12:05:10.265Z,15.70
2017-01-27T12:06:12.626Z,15.70
2017-01-27T12:07:11.681Z,15.70
2017-01-27T12:08:10.493Z,15.70
2017-01-27T12:09:12.714Z,15.70
2017-01-27T12:10:12.527Z,15.70
2017-01-27T12:11:13.346Z,15.70
2017-01-27T12:12:11.408Z,15.70
2017-01-27T12:13:12.138Z,15.70
2017-01-27T12:14:13.007Z,15.70
2017-01-27T12:15:14.625Z,15.70
2017-01-27T12:16:12.396Z,15.70
2017-01-27T12:17:10.104Z,15.70
2017-01-27T12:18:11.698Z,15.70
2017-01-27T12:19:11.833Z,15.70
2017-01-27T12:20:11.766Z,15.70
2017-01-27T12:21:12.650Z,15.70
2017-01-27T12:22:12.274Z,15.70
2017-01-27T12:23:11.895Z,15.70
2017-01-27T12:24:12.702Z,15.70
2017-01-27T12:25:12.461Z,15.70
2017-01-27T12:26:12.105Z,15.70
2017-01-27T12:27:09.694Z,15.70
2017-01-27T12:28:09.590Z,15.70
2017-01-27T12:29:12.201Z,15.70
2017-01-27T12:30:11.213Z,15.70
2017-01-27T12:31:12.946Z,15.70
2017-01-27T12:32:11.709Z,15.70
2017-01-27T12:33:12.751Z,15.70
2017-01-27T12:34:11.885Z,15.70
2017-01-27T12:35:12.482Z,15.70
2017-01-27T12:36:12.029Z,15.70
2017-01-27T12:37:11.276Z,15.70
2017-01-27T12:38:11.386Z,15.70
2017-01-27T12:39:12.108Z,15.70
2017-01-27T12:40:11.740Z,15.70
2017-01-27T12:41:11.764Z,15.70
2017-01-27T12:42:11.792Z,15.70
2017-01-27T12:43:11.874Z,15.70
2017-01-27T12:44:13.433Z,15.70
2017-01-27T12:45:12.568Z,15.70
2017-01-27T12:46:12.308Z,15.70
2017-01-27T12:47:12.142Z,15.70
2017-01-27T12:48:11.703Z,15.70
2017-01-27T12:49:12.429Z,15.70
2017-01-27T12:50:11.462Z,15.70
2017-01-27T12:51:13.325Z,15.70
2017-01-27T12:52:11.919Z,15.70